Time;durP1;ratioP1;P1;durP2;ratioP2;P2;SDS_P1;SDS_P2;PMS_P1;PMS_P2;Temp;Humidity;BMP_temperature;BMP_pressure;BME280_temperature;BME280_humidity;BME280_pressure;Samples;Min_cycle;Max_cycle;Signal;HPM_P1;HPM_P2
2022/05/08 00:01:59;;;;;;;2.95;1.90;;;;;;;;;;4403750;29;20033;-76
2022/05/08 00:04:10;;;;;;;4.23;2.00;;;;;;;;;;4403287;29;20061;-76
2022/05/08 00:06:20;;;;;;;4.07;2.10;;;;;;;;;;4403363;29;33896;-76
2022/05/08 00:08:31;;;;;;;5.00;2.40;;;;;;;;;;4404272;29;21978;-76
2022/05/08 00:10:41;;;;;;;3.37;2.00;;;;;;;;;;4403503;29;39756;-76
2022/05/08 00:12:51;;;;;;;3.47;2.00;;;;;;;;;;4402442;29;20036;-76
2022/05/08 00:15:03;;;;;;;3.37;2.00;;;;;;;;;;4403304;29;30133;-76
2022/05/08 00:17:14;;;;;;;3.38;1.85;;;;;;;;;;4403001;29;20859;-76
2022/05/08 00:19:24;;;;;;;3.30;1.90;;;;;;;;;;4405355;28;20045;-76
2022/05/08 00:21:34;;;;;;;3.67;1.87;;;;;;;;;;4401436;29;31889;-76
2022/05/08 00:23:45;;;;;;;4.93;2.03;;;;;;;;;;4403843;28;20044;-76
2022/05/08 00:25:55;;;;;;;3.83;2.17;;;;;;;;;;4402915;29;20132;-76
2022/05/08 00:28:06;;;;;;;3.07;2.00;;;;;;;;;;4403787;29;20121;-76
2022/05/08 00:30:16;;;;;;;3.37;1.90;;;;;;;;;;4390767;29;20032;-76
2022/05/08 00:32:27;;;;;;;4.63;2.47;;;;;;;;;;4404100;29;21551;-76
2022/05/08 00:34:37;;;;;;;3.80;2.30;;;;;;;;;;4405489;29;20040;-76
2022/05/08 00:36:48;;;;;;;3.50;2.00;;;;;;;;;;4400965;29;20136;-76
2022/05/08 00:38:59;;;;;;;4.00;2.07;;;;;;;;;;4402535;29;20039;-77
2022/05/08 00:41:09;;;;;;;4.83;2.30;;;;;;;;;;4404003;29;20036;-77
2022/05/08 00:43:24;;;;;;;4.27;2.30;;;;;;;;;;4403590;28;20797;-77
2022/05/08 00:45:38;;;;;;;6.00;2.35;;;;;;;;;;4404046;29;20180;-76
2022/05/08 00:47:48;;;;;;;2.78;2.15;;;;;;;;;;4405000;29;20071;-76
2022/05/08 00:49:59;;;;;;;3.27;2.40;;;;;;;;;;4403068;29;20051;-76
2022/05/08 00:52:09;;;;;;;3.23;2.20;;;;;;;;;;4410856;28;20078;-76
2022/05/08 00:54:20;;;;;;;4.47;2.33;;;;;;;;;;4403673;29;20047;-75
2022/05/08 00:56:30;;;;;;;4.57;2.60;;;;;;;;;;4403829;29;24989;-76
2022/05/08 00:58:43;;;;;;;3.27;2.40;;;;;;;;;;4388820;29;20356;-76
2022/05/08 01:00:54;;;;;;;5.35;2.78;;;;;;;;;;4410826;29;20180;-76
2022/05/08 01:03:04;;;;;;;5.03;2.73;;;;;;;;;;4402826;29;20045;-76
2022/05/08 01:05:15;;;;;;;4.17;2.53;;;;;;;;;;4403977;29;20072;-76
2022/05/08 01:07:27;;;;;;;5.10;2.72;;;;;;;;;;4403809;29;20652;-76
2022/05/08 01:09:38;;;;;;;4.55;2.97;;;;;;;;;;4404700;29;20041;-76
2022/05/08 01:11:50;;;;;;;5.13;2.75;;;;;;;;;;4403021;29;20028;-76
2022/05/08 01:14:01;;;;;;;5.10;2.97;;;;;;;;;;4403760;29;25405;-76
2022/05/08 01:16:19;;;;;;;3.87;2.87;;;;;;;;;;4403423;29;20038;-76
2022/05/08 01:18:29;;;;;;;4.93;3.08;;;;;;;;;;4403674;29;20094;-76
2022/05/08 01:20:41;;;;;;;4.13;3.30;;;;;;;;;;4402157;29;20059;-76
2022/05/08 01:22:52;;;;;;;5.53;3.20;;;;;;;;;;4418528;28;20601;-76
2022/05/08 01:25:04;;;;;;;4.15;2.65;;;;;;;;;;4387834;29;20891;-76
2022/05/08 01:27:14;;;;;;;4.32;3.22;;;;;;;;;;4417272;28;20083;-76
2022/05/08 01:29:24;;;;;;;4.83;3.20;;;;;;;;;;4417935;28;20143;-76
2022/05/08 01:31:35;;;;;;;5.40;3.50;;;;;;;;;;4403905;28;20505;-76
2022/05/08 01:33:45;;;;;;;5.43;3.53;;;;;;;;;;4403598;28;20376;-76
2022/05/08 01:36:01;;;;;;;5.27;3.57;;;;;;;;;;4405005;29;20108;-76
2022/05/08 01:38:13;;;;;;;4.90;3.40;;;;;;;;;;4402651;29;20600;-76
2022/05/08 01:40:24;;;;;;;5.35;3.67;;;;;;;;;;4402768;29;20077;-77
2022/05/08 01:42:34;;;;;;;5.40;3.80;;;;;;;;;;4402803;29;20036;-76
2022/05/08 01:44:45;;;;;;;5.43;3.60;;;;;;;;;;4402230;29;32018;-76
2022/05/08 01:49:26;;;;;;;5.65;3.97;;;;;;;;;;4405004;29;20037;-76
2022/05/08 01:51:37;;;;;;;5.17;3.63;;;;;;;;;;4404238;29;20048;-76
2022/05/08 01:53:47;;;;;;;4.47;3.33;;;;;;;;;;4410291;29;20087;-76
2022/05/08 01:55:58;;;;;;;5.97;3.73;;;;;;;;;;4405852;29;22092;-77
2022/05/08 01:58:08;;;;;;;6.70;3.60;;;;;;;;;;4390245;29;20140;-76
2022/05/08 02:00:20;;;;;;;5.63;3.27;;;;;;;;;;4406373;28;20052;-76
2022/05/08 02:02:32;;;;;;;6.10;3.72;;;;;;;;;;4403353;29;20946;-76
2022/05/08 02:04:43;;;;;;;6.05;3.42;;;;;;;;;;4414440;29;20064;-76
2022/05/08 02:06:53;;;;;;;5.70;3.53;;;;;;;;;;4406694;29;20041;-77
2022/05/08 02:09:03;;;;;;;5.77;3.70;;;;;;;;;;4407186;29;20029;-76
2022/05/08 02:11:14;;;;;;;8.47;4.03;;;;;;;;;;4404888;29;20076;-76
2022/05/08 02:13:24;;;;;;;5.70;3.27;;;;;;;;;;4403933;29;20032;-76
2022/05/08 02:15:35;;;;;;;6.30;3.63;;;;;;;;;;4406136;29;34804;-76
2022/05/08 02:17:46;;;;;;;5.82;3.50;;;;;;;;;;4406504;29;20569;-76
2022/05/08 02:19:57;;;;;;;6.83;3.50;;;;;;;;;;4405422;29;27641;-74
2022/05/08 02:22:07;;;;;;;7.10;3.50;;;;;;;;;;4405186;29;20044;-74
2022/05/08 02:24:18;;;;;;;5.53;3.00;;;;;;;;;;4405578;29;20040;-74
2022/05/08 02:26:28;;;;;;;5.63;3.07;;;;;;;;;;4406795;28;20426;-74
2022/05/08 02:28:41;;;;;;;5.97;3.00;;;;;;;;;;4404474;29;37713;-74
2022/05/08 02:30:52;;;;;;;4.90;2.80;;;;;;;;;;4405347;28;20250;-75
2022/05/08 02:33:02;;;;;;;4.13;2.67;;;;;;;;;;4406227;28;20035;-74
2022/05/08 02:35:13;;;;;;;4.80;3.00;;;;;;;;;;4409083;28;20524;-74
2022/05/08 02:37:23;;;;;;;4.40;2.53;;;;;;;;;;4410607;28;20033;-74
2022/05/08 02:39:34;;;;;;;5.90;2.80;;;;;;;;;;4405660;29;20044;-74
2022/05/08 02:41:45;;;;;;;5.77;2.70;;;;;;;;;;4404865;29;22501;-74
2022/05/08 02:43:56;;;;;;;5.35;2.65;;;;;;;;;;4406092;28;20036;-74
2022/05/08 02:46:06;;;;;;;4.33;2.67;;;;;;;;;;4404444;29;27096;-74
2022/05/08 02:48:16;;;;;;;5.30;2.87;;;;;;;;;;4403117;28;20045;-74
2022/05/08 02:50:27;;;;;;;7.80;2.73;;;;;;;;;;4406487;29;20033;-74
2022/05/08 02:52:41;;;;;;;5.10;2.63;;;;;;;;;;4405361;29;34615;-74
2022/05/08 02:54:51;;;;;;;5.10;2.53;;;;;;;;;;4406153;29;20048;-74
2022/05/08 02:59:32;;;;;;;4.97;2.60;;;;;;;;;;4406028;29;20036;-74
2022/05/08 03:01:43;;;;;;;6.27;2.50;;;;;;;;;;4412024;28;30110;-74
2022/05/08 03:03:55;;;;;;;5.60;2.50;;;;;;;;;;4404661;29;20131;-74
2022/05/08 03:06:06;;;;;;;5.77;2.83;;;;;;;;;;4402621;29;40104;-74
2022/05/08 03:08:17;;;;;;;4.03;2.23;;;;;;;;;;4405876;29;20482;-74
2022/05/08 03:10:28;;;;;;;4.57;2.42;;;;;;;;;;4405598;28;20356;-74
2022/05/08 03:12:39;;;;;;;5.17;2.90;;;;;;;;;;4411985;29;20036;-74
2022/05/08 03:14:50;;;;;;;5.50;2.55;;;;;;;;;;4404423;28;20036;-74
2022/05/08 03:17:00;;;;;;;5.27;2.53;;;;;;;;;;4403113;29;20049;-74
2022/05/08 03:19:11;;;;;;;6.13;2.70;;;;;;;;;;4404195;29;20745;-74
2022/05/08 03:21:22;;;;;;;5.07;2.43;;;;;;;;;;4404557;29;20079;-73
2022/05/08 03:23:34;;;;;;;8.95;2.60;;;;;;;;;;4411951;29;20107;-74
2022/05/08 03:25:44;;;;;;;5.00;2.42;;;;;;;;;;4403857;29;20037;-74
2022/05/08 03:27:55;;;;;;;7.07;2.70;;;;;;;;;;4406750;29;20032;-74
2022/05/08 03:30:06;;;;;;;6.33;2.90;;;;;;;;;;4404911;29;20116;-74
2022/05/08 03:32:16;;;;;;;4.40;2.20;;;;;;;;;;4404969;29;20037;-74
2022/05/08 03:34:26;;;;;;;6.17;2.47;;;;;;;;;;4405711;29;20045;-74
2022/05/08 03:36:37;;;;;;;5.10;2.40;;;;;;;;;;4404917;28;20045;-74
2022/05/08 03:38:47;;;;;;;5.97;2.57;;;;;;;;;;4403194;29;20052;-74
2022/05/08 03:40:58;;;;;;;4.63;2.23;;;;;;;;;;4405981;29;20085;-74
2022/05/08 03:43:08;;;;;;;6.30;2.47;;;;;;;;;;4406293;29;20040;-74
2022/05/08 03:45:19;;;;;;;7.67;2.37;;;;;;;;;;4404503;29;20048;-74
2022/05/08 03:47:30;;;;;;;5.97;2.35;;;;;;;;;;4404195;29;20098;-74
2022/05/08 03:49:40;;;;;;;4.10;2.23;;;;;;;;;;4404222;29;24160;-75
2022/05/08 03:51:51;;;;;;;6.50;2.47;;;;;;;;;;4404896;29;20040;-75
2022/05/08 03:54:02;;;;;;;6.23;2.30;;;;;;;;;;4405494;29;27780;-75
2022/05/08 03:56:12;;;;;;;6.65;2.28;;;;;;;;;;4412663;29;20043;-74
2022/05/08 03:58:26;;;;;;;7.00;2.10;;;;;;;;;;4404448;28;20047;-74
2022/05/08 04:00:36;;;;;;;5.90;2.25;;;;;;;;;;4403925;29;20052;-75
2022/05/08 04:02:47;;;;;;;5.23;2.03;;;;;;;;;;4405011;28;20043;-74
2022/05/08 04:05:00;;;;;;;5.00;2.40;;;;;;;;;;4407053;28;20060;-75
2022/05/08 04:07:10;;;;;;;5.03;2.30;;;;;;;;;;4404738;29;20040;-75
2022/05/08 04:09:20;;;;;;;6.47;2.37;;;;;;;;;;4401409;29;20634;-74
2022/05/08 04:11:31;;;;;;;4.87;2.00;;;;;;;;;;4402704;29;31720;-75
2022/05/08 04:13:41;;;;;;;7.33;2.50;;;;;;;;;;4402065;29;20257;-75
2022/05/08 04:18:20;;;;;;;4.97;2.08;;;;;;;;;;4403958;29;20052;-75
2022/05/08 04:20:31;;;;;;;5.23;2.30;;;;;;;;;;4402664;28;20406;-74
2022/05/08 04:25:10;;;;;;;4.95;1.90;;;;;;;;;;4402429;29;20068;-74
2022/05/08 04:27:21;;;;;;;6.63;1.90;;;;;;;;;;4403675;28;20518;-74
2022/05/08 04:29:31;;;;;;;5.70;1.80;;;;;;;;;;4404809;29;20032;-75
2022/05/08 04:31:42;;;;;;;4.53;1.80;;;;;;;;;;4403242;29;20804;-74
2022/05/08 04:33:52;;;;;;;5.70;2.10;;;;;;;;;;4403377;29;20037;-75
2022/05/08 04:36:02;;;;;;;6.57;2.00;;;;;;;;;;4403877;29;20131;-74
2022/05/08 04:38:13;;;;;;;5.50;2.10;;;;;;;;;;4403525;29;20044;-75
2022/05/08 04:40:24;;;;;;;5.38;2.03;;;;;;;;;;4404079;29;20064;-74
2022/05/08 04:42:34;;;;;;;5.30;2.10;;;;;;;;;;4403012;29;20033;-74
2022/05/08 04:44:45;;;;;;;6.70;2.17;;;;;;;;;;4403399;28;20347;-75
2022/05/08 04:46:55;;;;;;;6.27;2.13;;;;;;;;;;4403487;29;20234;-74
2022/05/08 04:49:06;;;;;;;3.80;1.70;;;;;;;;;;4403625;29;20676;-74
2022/05/08 04:51:18;;;;;;;4.35;1.70;;;;;;;;;;4402917;29;20045;-74
2022/05/08 04:53:30;;;;;;;5.97;2.13;;;;;;;;;;4402369;29;20478;-75
2022/05/08 04:55:41;;;;;;;4.50;2.13;;;;;;;;;;4402762;29;20039;-74
2022/05/08 04:57:51;;;;;;;8.47;2.30;;;;;;;;;;4393666;29;20049;-74
2022/05/08 05:00:02;;;;;;;4.97;1.93;;;;;;;;;;4403234;29;20095;-74
2022/05/08 05:02:14;;;;;;;5.82;2.28;;;;;;;;;;4399579;29;20044;-75
2022/05/08 05:04:25;;;;;;;5.53;1.98;;;;;;;;;;4402574;28;20040;-74
2022/05/08 05:06:35;;;;;;;5.63;1.83;;;;;;;;;;4403855;29;20037;-75
2022/05/08 05:08:46;;;;;;;5.77;2.00;;;;;;;;;;4400993;28;20045;-74
2022/05/08 05:10:56;;;;;;;5.40;1.70;;;;;;;;;;4401307;29;20655;-76
2022/05/08 05:13:07;;;;;;;6.60;2.27;;;;;;;;;;4401915;29;20123;-77
2022/05/08 05:15:18;;;;;;;6.33;2.27;;;;;;;;;;4401584;29;20064;-76
2022/05/08 05:17:28;;;;;;;5.72;1.90;;;;;;;;;;4388837;29;20028;-77
2022/05/08 05:19:39;;;;;;;4.43;1.53;;;;;;;;;;4402584;28;20860;-76
2022/05/08 05:21:49;;;;;;;5.03;2.00;;;;;;;;;;4401386;29;20052;-76
2022/05/08 05:23:59;;;;;;;5.17;2.03;;;;;;;;;;4400067;29;20047;-76
2022/05/08 05:26:10;;;;;;;4.60;1.57;;;;;;;;;;4404691;29;20037;-76
2022/05/08 05:28:20;;;;;;;5.40;1.80;;;;;;;;;;4403000;28;20040;-76
2022/05/08 05:30:31;;;;;;;6.80;2.27;;;;;;;;;;4402976;29;20387;-76
2022/05/08 05:32:41;;;;;;;5.57;2.13;;;;;;;;;;4403367;29;29704;-76
2022/05/08 05:34:52;;;;;;;6.87;1.80;;;;;;;;;;4401748;29;20032;-76
2022/05/08 05:37:03;;;;;;;7.23;2.03;;;;;;;;;;4401043;29;20281;-76
2022/05/08 05:39:13;;;;;;;5.63;1.53;;;;;;;;;;4400223;29;20144;-76
2022/05/08 05:41:23;;;;;;;5.87;1.53;;;;;;;;;;4403389;29;20066;-77
2022/05/08 05:43:34;;;;;;;5.37;1.90;;;;;;;;;;4400493;29;20068;-76
2022/05/08 05:45:44;;;;;;;5.27;1.70;;;;;;;;;;4400896;29;20398;-76
2022/05/08 05:47:59;;;;;;;4.90;1.60;;;;;;;;;;4418608;28;20041;-77
2022/05/08 05:50:09;;;;;;;6.28;2.08;;;;;;;;;;4404027;29;20036;-75
2022/05/08 05:52:20;;;;;;;4.30;1.60;;;;;;;;;;4400736;29;20528;-76
2022/05/08 05:54:30;;;;;;;3.77;1.50;;;;;;;;;;4403424;29;20075;-76
2022/05/08 05:56:41;;;;;;;4.57;2.00;;;;;;;;;;4402995;29;20123;-76
2022/05/08 05:58:52;;;;;;;6.28;1.75;;;;;;;;;;4403693;29;20080;-76
2022/05/08 06:01:02;;;;;;;3.47;1.37;;;;;;;;;;4403141;29;20041;-78
2022/05/08 06:03:13;;;;;;;5.80;2.23;;;;;;;;;;4392972;29;20036;-78
2022/05/08 06:05:23;;;;;;;4.97;1.60;;;;;;;;;;4389839;29;20212;-77
2022/05/08 06:07:35;;;;;;;4.17;1.50;;;;;;;;;;4404665;29;20385;-77
2022/05/08 06:09:45;;;;;;;;;;;;;;;;;;4404287;29;20916;-77
2022/05/08 06:11:55;;;;;;;3.67;1.40;;;;;;;;;;4384956;29;19919;-77
2022/05/08 06:14:06;;;;;;;4.17;1.40;;;;;;;;;;4401340;28;20680;-76
2022/05/08 06:16:16;;;;;;;5.37;1.53;;;;;;;;;;4402430;29;20498;-77
2022/05/08 06:18:27;;;;;;;6.90;1.60;;;;;;;;;;4402261;29;20048;-76
2022/05/08 06:20:38;;;;;;;6.70;1.77;;;;;;;;;;4401491;29;20044;-77
2022/05/08 06:22:48;;;;;;;4.78;1.63;;;;;;;;;;4402987;29;20036;-77
2022/05/08 06:24:59;;;;;;;4.77;1.43;;;;;;;;;;4403356;29;20040;-77
2022/05/08 06:27:10;;;;;;;4.57;1.40;;;;;;;;;;4402327;28;20036;-77
2022/05/08 06:29:20;;;;;;;5.30;1.42;;;;;;;;;;4403583;28;20745;-77
2022/05/08 06:31:31;;;;;;;4.07;1.40;;;;;;;;;;4404118;29;20096;-77
2022/05/08 06:33:45;;;;;;;5.40;1.50;;;;;;;;;;4392437;29;20725;-77
2022/05/08 06:35:55;;;;;;;4.72;1.60;;;;;;;;;;4402564;29;20024;-77
2022/05/08 06:38:09;;;;;;;5.10;1.47;;;;;;;;;;4404933;29;20048;-77
2022/05/08 06:40:21;;;;;;;3.67;1.45;;;;;;;;;;4406482;29;20028;-77
2022/05/08 06:42:32;;;;;;;6.18;1.73;;;;;;;;;;4407327;29;20092;-77
2022/05/08 06:44:45;;;;;;;4.28;1.38;;;;;;;;;;4407379;29;20827;-76
2022/05/08 06:46:56;;;;;;;4.30;1.63;;;;;;;;;;4405133;28;20040;-76
2022/05/08 06:49:07;;;;;;;5.00;1.47;;;;;;;;;;4405766;28;20469;-76
2022/05/08 06:51:17;;;;;;;4.50;1.50;;;;;;;;;;4397053;29;20048;-76
2022/05/08 06:53:28;;;;;;;3.27;1.37;;;;;;;;;;4412999;28;20048;-77
2022/05/08 06:55:39;;;;;;;6.53;1.70;;;;;;;;;;4404459;29;20064;-77
2022/05/08 06:57:49;;;;;;;4.50;1.42;;;;;;;;;;4407011;29;21030;-76
2022/05/08 07:02:29;;;;;;;5.00;1.38;;;;;;;;;;4405533;29;20048;-77
2022/05/08 07:04:39;;;;;;;4.93;1.73;;;;;;;;;;4403620;29;20029;-77
2022/05/08 07:06:50;;;;;;;5.87;1.70;;;;;;;;;;4405819;29;20604;-76
2022/05/08 07:09:02;;;;;;;5.53;1.55;;;;;;;;;;4405211;28;20041;-77
2022/05/08 07:11:13;;;;;;;4.22;1.52;;;;;;;;;;4405006;29;20044;-77
2022/05/08 07:13:26;;;;;;;5.93;1.53;;;;;;;;;;4405776;29;20435;-77
2022/05/08 07:15:36;;;;;;;6.68;1.70;;;;;;;;;;4405441;29;20044;-76
2022/05/08 07:17:47;;;;;;;6.53;1.93;;;;;;;;;;4404520;28;20032;-76
2022/05/08 07:19:57;;;;;;;3.57;1.40;;;;;;;;;;4404368;28;23331;-76
2022/05/08 07:22:07;;;;;;;5.97;1.30;;;;;;;;;;4404554;28;20543;-76
2022/05/08 07:24:19;;;;;;;;;;;;;;;;;;4404293;29;20096;-77
2022/05/08 07:26:29;;;;;;;5.30;1.52;;;;;;;;;;4404560;29;20041;-76
2022/05/08 07:28:40;;;;;;;3.90;1.50;;;;;;;;;;4405174;29;20068;-76
2022/05/08 07:30:51;;;;;;;4.60;1.27;;;;;;;;;;4396504;29;20112;-76
2022/05/08 07:33:01;;;;;;;4.60;1.60;;;;;;;;;;4404952;29;20033;-77
2022/05/08 07:37:43;;;;;;;5.18;1.50;;;;;;;;;;4405223;29;20615;-77
2022/05/08 07:39:54;;;;;;;6.10;1.73;;;;;;;;;;4404852;29;20052;-77
2022/05/08 07:42:04;;;;;;;5.90;1.60;;;;;;;;;;4404491;29;20116;-76
2022/05/08 07:44:15;;;;;;;4.63;1.40;;;;;;;;;;4403227;29;20786;-76
2022/05/08 07:46:25;;;;;;;3.80;1.30;;;;;;;;;;4405346;29;20067;-76
2022/05/08 07:48:36;;;;;;;5.37;1.40;;;;;;;;;;4404887;29;20579;-76
2022/05/08 07:50:46;;;;;;;4.33;1.30;;;;;;;;;;4404838;29;37329;-76
2022/05/08 07:52:56;;;;;;;6.13;1.60;;;;;;;;;;4403473;29;20040;-76
2022/05/08 07:55:07;;;;;;;5.13;1.80;;;;;;;;;;4403714;29;20039;-77
2022/05/08 07:57:18;;;;;;;5.93;1.50;;;;;;;;;;4403804;29;20067;-76
2022/05/08 07:59:28;;;;;;;4.00;1.20;;;;;;;;;;4405838;29;20051;-77
2022/05/08 08:01:39;;;;;;;4.63;1.30;;;;;;;;;;4404077;29;20047;-76
2022/05/08 08:03:49;;;;;;;5.47;1.43;;;;;;;;;;4404072;29;20043;-76
2022/05/08 08:06:01;;;;;;;3.53;1.37;;;;;;;;;;4403410;29;21857;-76
2022/05/08 08:08:12;;;;;;;;;;;;;;;;;;4409541;29;20036;-76
2022/05/08 08:10:22;;;;;;;2.80;1.20;;;;;;;;;;4404634;28;20022;-77
2022/05/08 08:12:33;;;;;;;4.77;1.57;;;;;;;;;;4404199;28;20264;-77
2022/05/08 08:14:43;;;;;;;3.50;1.27;;;;;;;;;;4405229;29;20045;-76
2022/05/08 08:16:54;;;;;;;6.03;1.70;;;;;;;;;;4403558;29;20037;-76
2022/05/08 08:19:05;;;;;;;3.87;1.27;;;;;;;;;;4404354;29;20131;-76
2022/05/08 08:21:16;;;;;;;3.92;1.23;;;;;;;;;;4406134;28;20047;-75
2022/05/08 08:23:27;;;;;;;5.03;1.35;;;;;;;;;;4412616;29;21221;-76
2022/05/08 08:25:38;;;;;;;5.80;1.50;;;;;;;;;;4404533;29;20036;-75
2022/05/08 08:27:48;;;;;;;5.53;1.43;;;;;;;;;;4403701;29;20545;-74
2022/05/08 08:30:01;;;;;;;4.27;1.50;;;;;;;;;;4405194;29;20127;-74
2022/05/08 08:32:12;;;;;;;6.45;1.70;;;;;;;;;;4417901;28;20112;-74
2022/05/08 08:34:22;;;;;;;4.90;1.53;;;;;;;;;;4390206;29;20047;-75
2022/05/08 08:36:33;;;;;;;3.17;1.38;;;;;;;;;;4404000;29;20035;-74
2022/05/08 08:38:43;;;;;;;4.67;1.33;;;;;;;;;;4404751;29;20408;-75
2022/05/08 08:40:56;;;;;;;5.80;1.40;;;;;;;;;;4404478;29;20137;-74
2022/05/08 08:43:09;;;;;;;3.53;1.05;;;;;;;;;;4404240;29;20038;-74
2022/05/08 08:47:54;;;;;;;3.05;1.20;;;;;;;;;;4410535;29;20088;-69
2022/05/08 08:50:06;;;;;;;4.38;1.50;;;;;;;;;;4407789;28;20032;-75
2022/05/08 08:52:17;;;;;;;4.20;1.30;;;;;;;;;;4418239;28;20036;-77
2022/05/08 08:54:27;;;;;;;3.80;1.33;;;;;;;;;;4403214;28;20595;-70
2022/05/08 08:56:38;;;;;;;3.80;1.30;;;;;;;;;;4406991;29;20048;-78
2022/05/08 08:58:48;;;;;;;2.80;1.20;;;;;;;;;;4401074;28;20452;-74
2022/05/08 09:00:59;;;;;;;4.53;1.40;;;;;;;;;;4404050;29;20041;-75
2022/05/08 09:03:09;;;;;;;5.07;1.43;;;;;;;;;;4404049;29;20036;-72
2022/05/08 09:05:20;;;;;;;5.73;1.30;;;;;;;;;;4402597;29;20040;-71
2022/05/08 09:07:35;;;;;;;3.65;1.20;;;;;;;;;;4405279;29;20048;-72
2022/05/08 09:09:46;;;;;;;3.97;1.42;;;;;;;;;;4403736;29;20073;-70
2022/05/08 09:11:58;;;;;;;3.80;1.40;;;;;;;;;;4402874;29;20037;-69
2022/05/08 09:14:08;;;;;;;4.43;1.57;;;;;;;;;;4401927;29;20047;-67
2022/05/08 09:16:19;;;;;;;3.27;1.20;;;;;;;;;;4404219;29;20078;-71
2022/05/08 09:18:29;;;;;;;3.07;1.10;;;;;;;;;;4412014;29;20070;-69
2022/05/08 09:20:45;;;;;;;2.80;1.17;;;;;;;;;;4404830;29;20160;-74
2022/05/08 09:23:21;;;;;;;4.60;1.38;;;;;;;;;;4405542;29;20147;-74
2022/05/08 09:25:46;;;;;;;5.78;1.52;;;;;;;;;;4405353;29;20051;-73
2022/05/08 09:28:01;;;;;;;4.10;1.30;;;;;;;;;;4405691;28;20036;-73
2022/05/08 09:30:12;;;;;;;3.60;1.23;;;;;;;;;;4405480;29;20131;-73
2022/05/08 09:32:35;;;;;;;4.03;1.27;;;;;;;;;;4403407;29;20040;-73
2022/05/08 09:34:57;;;;;;;3.75;1.40;;;;;;;;;;4405886;29;20604;-74
2022/05/08 09:37:08;;;;;;;2.33;1.20;;;;;;;;;;4403895;29;21024;-74
2022/05/08 09:39:21;;;;;;;4.90;1.70;;;;;;;;;;4401835;29;20047;-74
2022/05/08 09:41:37;;;;;;;4.25;1.25;;;;;;;;;;4402742;28;20115;-74
2022/05/08 09:43:48;;;;;;;2.85;1.20;;;;;;;;;;4406444;29;20029;-74
2022/05/08 09:45:59;;;;;;;2.78;1.27;;;;;;;;;;4403470;29;20052;-74
2022/05/08 09:48:16;;;;;;;3.30;1.20;;;;;;;;;;4404292;29;20039;-74
2022/05/08 09:50:27;;;;;;;4.00;1.33;;;;;;;;;;4396780;29;20041;-74
2022/05/08 09:52:39;;;;;;;2.03;0.90;;;;;;;;;;4416940;28;20036;-74
2022/05/08 09:54:49;;;;;;;3.15;1.20;;;;;;;;;;4402604;28;20028;-72
2022/05/08 09:57:01;;;;;;;4.43;1.20;;;;;;;;;;4411277;29;30186;-74
2022/05/08 09:59:12;;;;;;;;;;;;;;;;;;4403884;29;20045;-74
2022/05/08 10:01:24;;;;;;;4.00;1.35;;;;;;;;;;4402524;29;20373;-74
2022/05/08 10:03:35;;;;;;;5.50;1.50;;;;;;;;;;4416919;28;20055;-74
2022/05/08 10:05:47;;;;;;;3.28;1.25;;;;;;;;;;4403251;29;20107;-74
2022/05/08 10:07:59;;;;;;;5.03;1.48;;;;;;;;;;4402702;29;20128;-74
2022/05/08 10:15:20;;;;;;;5.40;1.45;;;;;;;;;;4398622;29;20036;-74
2022/05/08 10:17:30;;;;;;;3.60;1.23;;;;;;;;;;4407869;29;20087;-75
2022/05/08 10:19:43;;;;;;;4.50;1.20;;;;;;;;;;4405526;29;20557;-75
2022/05/08 10:21:57;;;;;;;3.25;1.25;;;;;;;;;;4398825;29;20036;-76
2022/05/08 10:24:27;;;;;;;4.68;1.35;;;;;;;;;;4406304;29;20567;-75
2022/05/08 10:26:37;;;;;;;3.10;1.05;;;;;;;;;;4405595;29;20537;-76
2022/05/08 10:29:15;;;;;;;4.77;1.30;;;;;;;;;;4406242;29;20048;-76
2022/05/08 10:31:48;;;;;;;2.85;1.10;;;;;;;;;;4405230;29;20028;-76
2022/05/08 10:34:05;;;;;;;3.28;1.30;;;;;;;;;;4406328;29;20040;-76
2022/05/08 10:36:15;;;;;;;3.45;1.20;;;;;;;;;;4406018;29;20127;-75
2022/05/08 10:38:26;;;;;;;3.03;1.17;;;;;;;;;;4405438;29;20153;-75
2022/05/08 10:40:37;;;;;;;3.60;1.20;;;;;;;;;;4404971;28;20048;-76
2022/05/08 10:42:55;;;;;;;4.57;1.50;;;;;;;;;;4404870;29;20568;-75
2022/05/08 10:45:06;;;;;;;4.50;1.63;;;;;;;;;;4420171;28;20204;-76
2022/05/08 10:47:32;;;;;;;3.65;1.20;;;;;;;;;;4405884;29;20126;-76
2022/05/08 10:49:42;;;;;;;6.07;1.77;;;;;;;;;;4406344;29;20032;-77
2022/05/08 10:51:53;;;;;;;4.20;1.30;;;;;;;;;;4405311;28;20041;-77
2022/05/08 10:54:10;;;;;;;4.93;1.40;;;;;;;;;;4405737;29;20451;-77
2022/05/08 10:56:21;;;;;;;6.68;1.50;;;;;;;;;;4405543;28;20102;-77
2022/05/08 10:58:34;;;;;;;3.70;1.37;;;;;;;;;;4405131;28;20159;-77
2022/05/08 11:00:45;;;;;;;5.38;1.65;;;;;;;;;;4406171;29;20045;-77
2022/05/08 11:02:59;;;;;;;3.73;1.40;;;;;;;;;;4403965;29;20043;-77
2022/05/08 11:05:21;;;;;;;4.57;1.50;;;;;;;;;;4408890;28;21584;-82
2022/05/08 11:07:31;;;;;;;5.55;1.60;;;;;;;;;;4407274;29;20036;-82
2022/05/08 11:09:44;;;;;;;5.22;1.30;;;;;;;;;;4406937;28;20044;-82
2022/05/08 11:11:55;;;;;;;4.37;1.37;;;;;;;;;;4405101;29;25261;-82
2022/05/08 11:14:05;;;;;;;4.43;1.50;;;;;;;;;;4406242;29;20036;-81
2022/05/08 11:16:33;;;;;;;3.80;1.37;;;;;;;;;;4405213;29;20032;-77
2022/05/08 11:18:44;;;;;;;6.22;1.70;;;;;;;;;;4407480;29;20131;-77
2022/05/08 11:20:59;;;;;;;4.30;1.30;;;;;;;;;;4405201;29;20044;-77
2022/05/08 11:23:14;;;;;;;4.00;1.20;;;;;;;;;;4404093;28;20048;-77
2022/05/08 11:25:24;;;;;;;4.35;1.13;;;;;;;;;;4406291;29;20028;-77
2022/05/08 11:27:36;;;;;;;6.10;1.57;;;;;;;;;;4404689;29;20040;-77
2022/05/08 11:29:48;;;;;;;3.75;1.40;;;;;;;;;;4405717;29;20155;-77
2022/05/08 11:37:19;;;;;;;2.92;1.20;;;;;;;;;;4401179;28;20630;-76
2022/05/08 11:39:29;;;;;;;2.95;1.20;;;;;;;;;;4408252;29;20120;-76
2022/05/08 11:41:50;;;;;;;3.73;1.10;;;;;;;;;;4405501;29;20043;-76
2022/05/08 11:44:15;;;;;;;4.78;1.77;;;;;;;;;;4406095;29;20052;-77
2022/05/08 11:46:36;;;;;;;5.43;1.35;;;;;;;;;;4405062;29;20056;-77
2022/05/08 11:48:48;;;;;;;3.92;1.45;;;;;;;;;;4406390;28;20044;-77
2022/05/08 11:50:58;;;;;;;2.40;1.20;;;;;;;;;;4412258;29;20968;-77
2022/05/08 11:53:09;;;;;;;2.57;1.07;;;;;;;;;;4404427;29;27433;-77
2022/05/08 11:55:20;;;;;;;4.20;1.20;;;;;;;;;;4404621;29;20626;-76
2022/05/08 11:57:42;;;;;;;3.72;1.10;;;;;;;;;;4403672;28;20039;-77
2022/05/08 12:00:04;;;;;;;4.75;1.60;;;;;;;;;;4405338;29;20036;-77
2022/05/08 12:02:15;;;;;;;3.72;1.15;;;;;;;;;;4404688;29;20036;-76
2022/05/08 12:04:27;;;;;;;;;;;;;;;;;;4407629;29;21022;-76
2022/05/08 12:06:38;;;;;;;4.53;1.40;;;;;;;;;;4403827;29;20562;-76
2022/05/08 12:08:49;;;;;;;4.17;1.40;;;;;;;;;;4403624;29;20100;-77
2022/05/08 12:10:59;;;;;;;2.80;1.17;;;;;;;;;;4418640;28;20099;-78
2022/05/08 12:13:10;;;;;;;5.53;1.60;;;;;;;;;;4418750;28;20055;-74
2022/05/08 12:15:21;;;;;;;4.80;1.50;;;;;;;;;;4403690;29;27848;-75
2022/05/08 12:17:44;;;;;;;4.57;1.55;;;;;;;;;;4403232;28;20603;-74
2022/05/08 12:19:57;;;;;;;4.63;1.63;;;;;;;;;;4405581;29;20189;-74
2022/05/08 12:22:36;;;;;;;3.30;1.17;;;;;;;;;;4403903;29;20041;-75
2022/05/08 12:24:49;;;;;;;4.28;1.20;;;;;;;;;;4403253;29;20662;-75
2022/05/08 12:26:59;;;;;;;3.43;1.17;;;;;;;;;;4391058;29;20334;-74
2022/05/08 12:29:17;;;;;;;4.20;1.37;;;;;;;;;;4404877;29;20044;-75
2022/05/08 12:31:28;;;;;;;3.25;1.50;;;;;;;;;;4404464;28;20127;-75
2022/05/08 12:33:38;;;;;;;3.63;1.33;;;;;;;;;;4402077;29;20120;-75
2022/05/08 12:35:48;;;;;;;2.57;1.23;;;;;;;;;;4403253;29;20044;-75
2022/05/08 12:37:59;;;;;;;4.90;1.60;;;;;;;;;;4405365;29;20289;-75
2022/05/08 12:40:09;;;;;;;3.73;1.30;;;;;;;;;;4403916;29;31488;-75
2022/05/08 12:42:20;;;;;;;4.57;1.50;;;;;;;;;;4417415;28;20603;-75
2022/05/08 12:44:31;;;;;;;4.27;1.23;;;;;;;;;;4404552;29;20553;-75
2022/05/08 12:46:42;;;;;;;4.38;1.25;;;;;;;;;;4402577;29;20043;-76
2022/05/08 12:48:53;;;;;;;2.63;1.10;;;;;;;;;;4406246;29;20043;-74
2022/05/08 12:51:04;;;;;;;3.07;1.00;;;;;;;;;;4404750;29;20036;-74
2022/05/08 12:53:14;;;;;;;3.22;1.30;;;;;;;;;;4405361;29;20069;-73
2022/05/08 12:55:24;;;;;;;2.03;1.23;;;;;;;;;;4403513;29;20132;-74
2022/05/08 13:00:05;;;;;;;4.15;1.10;;;;;;;;;;4404224;29;20032;-74
2022/05/08 13:02:18;;;;;;;3.92;1.17;;;;;;;;;;4404550;29;20707;-73
2022/05/08 13:04:28;;;;;;;3.58;1.30;;;;;;;;;;4402014;29;20040;-73
2022/05/08 13:06:39;;;;;;;3.33;1.00;;;;;;;;;;4405658;29;20032;-73
2022/05/08 13:08:49;;;;;;;4.07;1.20;;;;;;;;;;4403637;28;26006;-73
2022/05/08 13:11:02;;;;;;;3.73;1.23;;;;;;;;;;4389848;29;20333;-73
2022/05/08 13:13:13;;;;;;;4.03;1.10;;;;;;;;;;4404567;28;20576;-74
2022/05/08 13:15:23;;;;;;;3.40;1.15;;;;;;;;;;4403952;28;20040;-73
2022/05/08 13:17:34;;;;;;;3.00;1.00;;;;;;;;;;4404778;29;20047;-73
2022/05/08 13:19:44;;;;;;;4.17;1.27;;;;;;;;;;4404076;29;25184;-73
2022/05/08 13:21:55;;;;;;;2.60;1.30;;;;;;;;;;4402964;29;20048;-73
2022/05/08 13:24:07;;;;;;;3.77;1.37;;;;;;;;;;4403351;29;20041;-73
2022/05/08 13:26:17;;;;;;;;;;;;;;;;;;4404313;29;20083;-73
2022/05/08 13:28:30;;;;;;;2.60;1.13;;;;;;;;;;4410027;28;19919;-72
2022/05/08 13:30:41;;;;;;;2.33;1.10;;;;;;;;;;4390540;29;20025;-72
2022/05/08 13:32:51;;;;;;;3.63;1.10;;;;;;;;;;4404469;29;20497;-72
2022/05/08 13:35:03;;;;;;;4.27;1.63;;;;;;;;;;4403891;29;20040;-73
2022/05/08 13:37:14;;;;;;;2.30;0.93;;;;;;;;;;4403412;29;20589;-72
2022/05/08 13:39:24;;;;;;;2.43;1.13;;;;;;;;;;4403355;29;20065;-72
2022/05/08 13:41:35;;;;;;;2.87;1.13;;;;;;;;;;4403421;29;20037;-73
2022/05/08 13:43:46;;;;;;;4.50;1.08;;;;;;;;;;4403182;29;20063;-72